Time;durP1;ratioP1;P1;durP2;ratioP2;P2;SDS_P1;SDS_P2;PMS_P1;PMS_P2;Temp;Humidity;BMP_temperature;BMP_pressure;BME280_temperature;BME280_humidity;BME280_pressure;Samples;Min_cycle;Max_cycle;Signal;HPM_P1;HPM_P2
2022/11/22 00:04:22;;;;;;;5.57;4.90;;;;;10.40;96959.00;;;;16591887;28;20801;-47
2022/11/22 00:12:24;;;;;;;7.50;5.80;;;;;10.60;96937.00;;;;16591794;28;20699;-47
2022/11/22 00:20:28;;;;;;;4.90;4.17;;;;;10.60;96928.00;;;;16590223;28;20869;-46
2022/11/22 00:28:31;;;;;;;6.27;4.90;;;;;10.30;96914.00;;;;16589129;28;20230;-47
2022/11/22 00:36:35;;;;;;;5.87;5.07;;;;;10.20;96917.00;;;;16586771;28;20314;-46
2022/11/22 00:44:37;;;;;;;5.60;4.53;;;;;10.20;96934.00;;;;16583869;28;20211;-47
2022/11/22 00:52:41;;;;;;;7.63;4.50;;;;;9.80;96936.00;;;;16589393;28;20254;-47
2022/11/22 01:00:44;;;;;;;4.40;4.00;;;;;10.60;96949.00;;;;16589314;28;20310;-47
2022/11/22 01:08:48;;;;;;;10.60;7.43;;;;;10.20;96960.00;;;;16587987;28;20215;-47
2022/11/22 01:16:50;;;;;;;10.13;8.30;;;;;10.10;96980.00;;;;16587176;28;20229;-46
2022/11/22 01:24:54;;;;;;;4.90;3.17;;;;;10.60;96970.00;;;;16586754;28;20295;-47
2022/11/22 01:32:57;;;;;;;9.37;8.63;;;;;9.90;96988.00;;;;16586129;28;20246;-47
2022/11/22 01:41:00;;;;;;;8.23;7.43;;;;;9.90;96987.00;;;;16588335;28;20310;-47
2022/11/22 01:49:06;;;;;;;7.50;5.03;;;;;9.80;96974.00;;;;16585060;28;20250;-46
2022/11/22 01:57:14;;;;;;;4.23;3.80;;;;;9.20;96990.00;;;;16583964;28;20259;-47
2022/11/22 02:05:18;;;;;;;10.30;4.50;;;;;10.00;96993.00;;;;16591650;28;20846;-47
2022/11/22 02:13:23;;;;;;;5.23;4.33;;;;;10.90;96996.00;;;;16608194;28;20257;-47
2022/11/22 02:21:26;;;;;;;4.97;4.57;;;;;11.10;96981.00;;;;16593783;28;20769;-47
2022/11/22 02:29:31;;;;;;;6.13;5.17;;;;;11.10;97005.00;;;;16605329;28;20691;-48
2022/11/22 02:37:34;;;;;;;4.00;3.13;;;;;11.00;97006.00;;;;16595198;28;20728;-47
2022/11/22 02:45:38;;;;;;;3.50;3.20;;;;;10.70;97022.00;;;;16599401;28;21742;-47
2022/11/22 02:53:40;;;;;;;3.80;3.20;;;;;10.80;97010.00;;;;16602760;28;20199;-47
2022/11/22 03:01:45;;;;;;;4.03;3.23;;;;;11.10;97008.00;;;;16600135;28;20269;-47
2022/11/22 03:09:48;;;;;;;4.20;3.63;;;;;10.50;97012.00;;;;16600487;28;20265;-46
2022/11/22 03:17:57;;;;;;;4.10;2.67;;;;;10.70;97029.00;;;;16592850;28;20297;-47
2022/11/22 03:26:00;;;;;;;3.90;2.73;;;;;10.50;97029.00;;;;16597848;28;20223;-45
2022/11/22 03:34:04;;;;;;;2.83;2.10;;;;;10.10;97045.00;;;;16602011;28;20272;-48
2022/11/22 03:42:06;;;;;;;5.00;2.43;;;;;10.30;97048.00;;;;16599204;28;20219;-47
2022/11/22 03:50:10;;;;;;;2.70;2.43;;;;;9.80;97043.00;;;;16593761;28;20302;-48
2022/11/22 03:58:13;;;;;;;3.03;2.73;;;;;9.80;97051.00;;;;16597268;28;20262;-46
2022/11/22 04:06:17;;;;;;;2.77;2.57;;;;;10.00;97056.00;;;;16607175;28;20268;-46
2022/11/22 04:22:40;;;;;;;6.20;3.53;;;;;8.90;97069.00;;;;16588438;28;20599;-46
2022/11/22 04:39:05;;;;;;;3.67;2.80;;;;;8.60;97086.00;;;;16610352;28;20253;-46
2022/11/22 04:47:08;;;;;;;2.87;2.60;;;;;8.30;97075.00;;;;16606403;28;20713;-47
2022/11/22 04:55:12;;;;;;;2.87;2.67;;;;;8.30;97080.00;;;;16602944;28;20199;-47
2022/11/22 05:03:14;;;;;;;4.00;3.20;;;;;7.90;97076.00;;;;16605351;28;20316;-48
2022/11/22 05:11:18;;;;;;;3.27;2.97;;;;;7.50;97092.00;;;;16603072;28;20713;-47
2022/11/22 05:19:21;;;;;;;3.47;2.67;;;;;7.60;97096.00;;;;16586601;28;20923;-48
2022/11/22 05:27:25;;;;;;;3.40;3.10;;;;;7.30;97121.00;;;;16610801;28;20264;-48
2022/11/22 05:35:27;;;;;;;7.60;4.20;;;;;7.40;97117.00;;;;16610575;28;20293;-47
2022/11/22 05:43:31;;;;;;;5.60;4.90;;;;;7.40;97126.00;;;;16594883;28;20256;-48
2022/11/22 05:51:35;;;;;;;5.87;3.40;;;;;7.40;97134.00;;;;16627014;28;20231;-48
2022/11/22 05:59:39;;;;;;;4.57;3.70;;;;;7.50;97129.00;;;;16601225;28;20377;-47
2022/11/22 06:07:41;;;;;;;5.93;4.03;;;;;7.50;97138.00;;;;16606870;28;20306;-47
2022/11/22 06:15:45;;;;;;;9.70;5.50;;;;;7.50;97146.00;;;;16605032;28;20239;-48
2022/11/22 06:23:47;;;;;;;13.97;8.80;;;;;7.70;97150.00;;;;16611115;28;20697;-46
2022/11/22 06:31:51;;;;;;;14.23;6.33;;;;;8.10;97159.00;;;;16593946;28;20293;-48
2022/11/22 06:39:54;;;;;;;6.50;4.20;;;;;8.20;97162.00;;;;16603887;28;20223;-48
2022/11/22 06:47:58;;;;;;;4.73;4.20;;;;;8.20;97184.00;;;;16623780;28;20297;-47
2022/11/22 06:56:02;;;;;;;6.70;4.00;;;;;8.10;97211.00;;;;16632352;28;20226;-48
2022/11/22 07:04:06;;;;;;;19.40;4.50;;;;;8.10;97230.00;;;;16629799;28;20241;-48
2022/11/22 07:12:09;;;;;;;6.80;4.90;;;;;8.10;97245.00;;;;16631832;28;20222;-46
2022/11/22 07:20:14;;;;;;;6.53;3.93;;;;;8.30;97247.00;;;;16617711;28;20261;-48
2022/11/22 07:28:16;;;;;;;6.13;4.33;;;;;9.10;97245.00;;;;16625956;28;20222;-47
2022/11/22 07:36:22;;;;;;;6.10;5.50;;;;;8.80;97258.00;;;;16618381;28;20625;-48
2022/11/22 07:44:25;;;;;;;18.90;6.87;;;;;8.30;97279.00;;;;16639247;28;20246;-48
2022/11/22 07:52:28;;;;;;;6.90;4.40;;;;;8.90;97277.00;;;;16622166;28;20246;-47
2022/11/22 08:00:31;;;;;;;8.17;6.37;;;;;8.50;97292.00;;;;16632652;28;20244;-48
2022/11/22 08:08:35;;;;;;;5.00;4.40;;;;;8.80;97284.00;;;;16617204;28;20300;-46
2022/11/22 08:16:38;;;;;;;6.53;5.90;;;;;9.30;97283.00;;;;16624930;28;20219;-45
2022/11/22 08:24:42;;;;;;;9.70;4.63;;;;;10.40;97270.00;;;;16629566;28;20281;-46
2022/11/22 08:32:45;;;;;;;5.33;4.37;;;;;10.80;97249.00;;;;16629830;28;20227;-46
2022/11/22 08:40:49;;;;;;;13.20;5.10;;;;;9.90;97266.00;;;;16634391;28;20303;-44
2022/11/22 08:48:53;;;;;;;8.30;4.80;;;;;9.80;97258.00;;;;16636122;28;20253;-46
2022/11/22 08:56:56;;;;;;;9.73;8.80;;;;;10.90;97238.00;;;;16603365;28;20223;-45
2022/11/22 09:04:59;;;;;;;23.43;16.10;;;;;11.10;97229.00;;;;16607726;28;20259;-46
2022/11/22 09:13:03;;;;;;;8.60;4.40;;;;;11.10;97226.00;;;;16616694;28;20250;-46
2022/11/22 09:21:07;;;;;;;4.97;4.30;;;;;11.60;97220.00;;;;16621551;28;20224;-46
2022/11/22 09:29:10;;;;;;;7.87;4.23;;;;;11.60;97228.00;;;;16621715;28;20237;-45
2022/11/22 09:37:17;;;;;;;8.80;3.40;;;;;11.40;97265.00;;;;16621848;28;20231;-46
2022/11/22 09:45:46;;;;;;;9.73;3.83;;;;;11.50;97270.00;;;;16618552;28;20612;-45
2022/11/22 09:53:53;;;;;;;5.90;3.40;;;;;11.70;97283.00;;;;16617916;28;20199;-46
2022/11/22 10:02:01;;;;;;;8.07;3.30;;;;;11.90;97281.00;;;;16617256;28;20295;-46
2022/11/22 10:10:07;;;;;;;6.53;2.93;;;;;12.00;97296.00;;;;16615543;28;20708;-46
2022/11/22 10:18:16;;;;;;;9.50;2.60;;;;;11.50;97307.00;;;;16618161;28;20269;-46
2022/11/22 10:26:24;;;;;;;5.77;1.80;;;;;12.10;97305.00;;;;16613641;28;20601;-45
2022/11/22 10:34:38;;;;;;;5.10;2.00;;;;;12.20;97307.00;;;;16624573;28;20276;-46
2022/11/22 10:43:06;;;;;;;8.00;2.50;;;;;11.80;97309.00;;;;16623681;28;20257;-46
2022/11/22 10:51:17;;;;;;;4.67;2.20;;;;;12.70;97313.00;;;;16623442;28;20246;-45
2022/11/22 10:59:31;;;;;;;3.80;2.00;;;;;12.50;97301.00;;;;16625748;28;20281;-46
2022/11/22 11:07:36;;;;;;;6.70;1.97;;;;;12.30;97308.00;;;;16625192;28;20229;-46
2022/11/22 11:15:41;;;;;;;6.90;2.50;;;;;12.30;97302.00;;;;16632648;28;20233;-46
2022/11/22 11:23:47;;;;;;;4.80;1.73;;;;;11.90;97303.00;;;;16638037;28;20250;-45
2022/11/22 11:31:50;;;;;;;3.47;1.33;;;;;12.10;97282.00;;;;16601043;28;20210;-45
2022/11/22 11:39:54;;;;;;;5.20;1.63;;;;;12.40;97280.00;;;;16588123;28;20266;-46
2022/11/22 11:47:57;;;;;;;1.77;1.37;;;;;12.80;97268.00;;;;16565063;28;20596;-45
2022/11/22 11:56:35;;;;;;;4.43;1.50;;;;;12.70;97260.00;;;;16552807;28;20745;-44
2022/11/22 12:04:48;;;;;;;4.77;1.63;;;;;12.40;97243.00;;;;16568623;28;20324;-47
2022/11/22 12:12:52;;;;;;;3.53;1.53;;;;;13.20;97226.00;;;;16581908;28;20221;-46
2022/11/22 12:21:04;;;;;;;3.10;1.73;;;;;12.70;97213.00;;;;16635919;28;20245;-46
2022/11/22 12:29:06;;;;;;;4.53;1.50;;;;;12.80;97216.00;;;;16632416;28;20256;-45
2022/11/22 12:37:15;;;;;;;4.43;1.60;;;;;13.10;97198.00;;;;16647431;28;20838;-45
2022/11/22 12:45:25;;;;;;;5.40;2.00;;;;;12.90;97198.00;;;;16614103;28;20266;-46
2022/11/22 12:53:31;;;;;;;3.93;2.27;;;;;12.70;97189.00;;;;16603706;28;20817;-45
2022/11/22 13:01:39;;;;;;;4.60;1.70;;;;;13.50;97177.00;;;;16615699;28;20929;-46
2022/11/22 13:09:47;;;;;;;6.53;1.90;;;;;13.90;97175.00;;;;16604200;28;20228;-46
2022/11/22 13:17:50;;;;;;;4.70;2.13;;;;;13.90;97170.00;;;;16616096;28;20253;-46
2022/11/22 13:26:01;;;;;;;5.07;1.40;;;;;13.20;97173.00;;;;16616410;28;20715;-48
2022/11/22 13:34:04;;;;;;;4.97;1.77;;;;;13.20;97186.00;;;;16606815;28;20199;-48
2022/11/22 13:42:12;;;;;;;2.60;1.37;;;;;13.00;97187.00;;;;16611480;28;20718;-48
2022/11/22 13:50:51;;;;;;;6.03;2.17;;;;;13.40;97196.00;;;;16609372;28;20840;-48
2022/11/22 13:59:05;;;;;;;2.80;1.13;;;;;12.70;97206.00;;;;16593787;28;20702;-48
2022/11/22 14:07:34;;;;;;;2.30;1.10;;;;;12.90;97227.00;;;;16620976;28;20225;-48
2022/11/22 14:15:51;;;;;;;3.53;1.00;;;;;12.90;97222.00;;;;16616012;28;20339;-47
2022/11/22 14:24:01;;;;;;;4.53;1.07;;;;;12.70;97211.00;;;;16631760;28;20229;-48
2022/11/22 14:32:15;;;;;;;2.57;1.17;;;;;12.40;97211.00;;;;16632887;28;20214;-48
2022/11/22 14:40:34;;;;;;;4.83;1.73;;;;;12.50;97223.00;;;;16613540;28;20234;-48
2022/11/22 14:48:53;;;;;;;1.87;1.13;;;;;12.80;97236.00;;;;16616844;28;20236;-48
2022/11/22 14:56:58;;;;;;;3.03;1.50;;;;;13.00;97228.00;;;;16607447;28;20595;-48
2022/11/22 15:05:09;;;;;;;4.60;1.80;;;;;12.60;97249.00;;;;16609690;28;20221;-48
2022/11/22 15:13:38;;;;;;;6.33;5.47;;;;;12.40;97243.00;;;;16603503;28;20869;-47
2022/11/22 15:21:42;;;;;;;2.47;1.20;;;;;12.40;97253.00;;;;16601606;28;20270;-48
2022/11/22 15:29:44;;;;;;;2.93;1.60;;;;;12.40;97249.00;;;;16625268;28;20296;-48
2022/11/22 15:37:53;;;;;;;1.43;1.27;;;;;12.40;97256.00;;;;16632308;28;20230;-48
2022/11/22 15:45:56;;;;;;;3.10;2.20;;;;;12.60;97281.00;;;;16632770;28;20230;-47
2022/11/22 15:54:19;;;;;;;4.93;2.40;;;;;12.30;97285.00;;;;16617461;28;20641;-48
2022/11/22 16:02:23;;;;;;;12.67;10.33;;;;;12.30;97314.00;;;;16596356;28;20442;-45
2022/11/22 16:10:32;;;;;;;7.13;2.43;;;;;12.00;97313.00;;;;16608515;28;20226;-46
2022/11/22 16:18:34;;;;;;;2.57;1.57;;;;;12.20;97312.00;;;;16601561;28;20223;-46
2022/11/22 16:26:38;;;;;;;2.37;1.77;;;;;12.20;97312.00;;;;16610177;28;20427;-47
2022/11/22 16:34:42;;;;;;;2.30;1.10;;;;;12.00;97319.00;;;;16611470;28;20241;-45
2022/11/22 16:42:45;;;;;;;5.37;1.90;;;;;12.10;97324.00;;;;16622464;28;20238;-46
2022/11/22 16:50:51;;;;;;;5.13;1.50;;;;;12.00;97341.00;;;;16616437;28;20358;-46
2022/11/22 16:58:56;;;;;;;4.23;1.70;;;;;11.90;97330.00;;;;16628635;28;20297;-46
2022/11/22 17:06:59;;;;;;;2.63;1.70;;;;;11.70;97335.00;;;;16633317;28;20705;-45
2022/11/22 17:15:03;;;;;;;6.40;2.57;;;;;11.90;97341.00;;;;16640260;28;20309;-46
2022/11/22 17:23:07;;;;;;;11.63;7.43;;;;;11.50;97359.00;;;;16642796;28;20638;-45
2022/11/22 17:31:14;;;;;;;3.73;2.63;;;;;11.90;97359.00;;;;16611297;28;20215;-45
2022/11/22 17:39:16;;;;;;;1.97;1.77;;;;;12.10;97360.00;;;;16589358;28;20273;-45
2022/11/22 17:47:20;;;;;;;3.27;1.80;;;;;12.30;97380.00;;;;16589978;28;20279;-46
2022/11/22 17:55:23;;;;;;;6.20;3.50;;;;;12.60;97389.00;;;;16595097;28;20659;-46
2022/11/22 18:03:27;;;;;;;3.43;1.73;;;;;12.20;97383.00;;;;16574757;28;20219;-46
2022/11/22 18:11:29;;;;;;;2.50;1.50;;;;;12.00;97386.00;;;;16593230;28;20844;-46
2022/11/22 18:19:33;;;;;;;6.53;2.37;;;;;12.00;97401.00;;;;16597808;28;20218;-47
2022/11/22 18:27:36;;;;;;;2.00;1.57;;;;;12.00;97409.00;;;;16586164;28;20320;-46
2022/11/22 18:35:39;;;;;;;1.60;1.30;;;;;12.00;97420.00;;;;16592551;28;20317;-48
2022/11/22 18:43:42;;;;;;;4.53;1.73;;;;;11.80;97431.00;;;;16601164;28;20672;-48
2022/11/22 18:51:46;;;;;;;3.80;1.63;;;;;11.80;97447.00;;;;16594145;28;20615;-48
2022/11/22 18:59:48;;;;;;;2.47;1.50;;;;;11.80;97442.00;;;;16589811;28;20293;-48
2022/11/22 19:07:52;;;;;;;5.93;1.60;;;;;11.60;97444.00;;;;16590038;28;20488;-48
2022/11/22 19:15:55;;;;;;;2.90;1.50;;;;;11.80;97445.00;;;;16573684;28;20276;-48
2022/11/22 19:23:59;;;;;;;2.73;1.37;;;;;11.60;97452.00;;;;16590756;28;20309;-48
2022/11/22 19:32:01;;;;;;;6.27;2.33;;;;;11.80;97449.00;;;;16611183;28;20257;-48
2022/11/22 19:40:06;;;;;;;8.80;2.10;;;;;11.70;97454.00;;;;16639489;28;20648;-47
2022/11/22 19:48:09;;;;;;;4.00;2.30;;;;;11.20;97457.00;;;;16638929;28;20272;-48
2022/11/22 19:56:14;;;;;;;3.20;1.77;;;;;11.60;97457.00;;;;16608465;28;20361;-46
2022/11/22 20:04:17;;;;;;;2.93;1.90;;;;;11.60;97472.00;;;;16603791;28;20253;-46
2022/11/22 20:12:20;;;;;;;3.30;2.20;;;;;11.50;97469.00;;;;16600828;28;20379;-46
2022/11/22 20:20:23;;;;;;;2.80;1.73;;;;;11.60;97478.00;;;;16600830;28;20633;-46
2022/11/22 20:28:27;;;;;;;5.37;2.70;;;;;11.70;97481.00;;;;16621241;28;20277;-46
2022/11/22 20:36:30;;;;;;;5.20;2.40;;;;;11.60;97484.00;;;;16638162;28;20226;-46
2022/11/22 20:44:34;;;;;;;7.70;2.60;;;;;11.40;97490.00;;;;16603308;28;20317;-45
2022/11/22 20:52:37;;;;;;;6.00;2.80;;;;;11.10;97503.00;;;;16586528;28;20306;-46
2022/11/22 21:00:41;;;;;;;3.00;1.90;;;;;10.90;97518.00;;;;16598125;28;20223;-46
2022/11/22 21:08:44;;;;;;;3.83;2.40;;;;;10.90;97520.00;;;;16593610;28;20211;-47
2022/11/22 21:16:48;;;;;;;5.40;2.23;;;;;10.80;97510.00;;;;16590718;28;20246;-46
2022/11/22 21:24:51;;;;;;;5.07;2.33;;;;;10.70;97517.00;;;;16581546;28;20823;-46
2022/11/22 21:32:54;;;;;;;3.40;2.10;;;;;10.80;97535.00;;;;16609669;28;20626;-46
2022/11/22 21:40:59;;;;;;;4.47;2.60;;;;;10.80;97540.00;;;;16601381;28;20304;-48
2022/11/22 21:49:03;;;;;;;3.30;2.37;;;;;10.50;97553.00;;;;16599689;28;20309;-48
2022/11/22 21:57:05;;;;;;;6.60;2.50;;;;;10.80;97540.00;;;;16623883;28;20309;-48
2022/11/22 22:05:10;;;;;;;4.90;2.90;;;;;10.70;97559.00;;;;16625664;28;20223;-48
2022/11/22 22:13:12;;;;;;;5.13;3.57;;;;;10.40;97557.00;;;;16628785;28;20935;-45
2022/11/22 22:21:18;;;;;;;4.43;2.73;;;;;9.80;97554.00;;;;16615699;28;20453;-46
2022/11/22 22:29:20;;;;;;;7.93;3.40;;;;;10.10;97554.00;;;;16624880;28;20748;-46
2022/11/22 22:37:24;;;;;;;7.53;2.60;;;;;10.10;97551.00;;;;16620146;28;20570;-49
2022/11/22 22:45:27;;;;;;;3.43;2.60;;;;;9.80;97562.00;;;;16621630;28;20299;-46
2022/11/22 22:53:31;;;;;;;4.63;2.80;;;;;9.70;97582.00;;;;16626241;28;20253;-48
2022/11/22 23:01:34;;;;;;;4.63;3.37;;;;;9.60;97587.00;;;;16633193;28;20656;-47
2022/11/22 23:09:38;;;;;;;6.73;2.80;;;;;8.80;97592.00;;;;16636727;28;20284;-47
2022/11/22 23:17:40;;;;;;;7.20;3.43;;;;;8.50;97588.00;;;;16604872;28;20253;-46
2022/11/22 23:25:44;;;;;;;4.23;3.20;;;;;9.20;97602.00;;;;16594913;28;20223;-46
2022/11/22 23:33:47;;;;;;;7.87;3.40;;;;;8.90;97608.00;;;;16603167;28;20202;-47
2022/11/22 23:41:51;;;;;;;4.83;2.80;;;;;9.20;97604.00;;;;16594128;28;20269;-47
2022/11/22 23:49:53;;;;;;;4.13;3.13;;;;;7.80;97610.00;;;;16584351;28;20281;-48
2022/11/22 23:57:59;;;;;;;8.60;3.90;;;;;8.40;97606.00;;;;16584421;28;20279;-48
